sensor_id;sensor_type;location;lat;lon;timestamp;pressure;altitude;pressure_sealevel;temperature;humidity
68891;BME280;55932;48.702;8.884;2023-04-29T00:02:38;95850;;;11.9;73.5
68891;BME280;55932;48.702;8.884;2023-04-29T00:05:15;95850;;;11.8;73.5
68891;BME280;55932;48.702;8.884;2023-04-29T00:07:52;95840;;;11.6;73.5
68891;BME280;55932;48.702;8.884;2023-04-29T00:12:33;95840;;;11.8;73.5
68891;BME280;55932;48.702;8.884;2023-04-29T00:15:11;95840;;;11.8;73.5
68891;BME280;55932;48.702;8.884;2023-04-29T00:17:36;95840;;;11.8;73.5
68891;BME280;55932;48.702;8.884;2023-04-29T00:19:59;95840;;;11.7;73.5
68891;BME280;55932;48.702;8.884;2023-04-29T00:22:30;95840;;;11.8;73.5
68891;BME280;55932;48.702;8.884;2023-04-29T00:32:34;95840;;;11.5;73.5
68891;BME280;55932;48.702;8.884;2023-04-29T00:35:05;95840;;;11.5;73.5
68891;BME280;55932;48.702;8.884;2023-04-29T00:37:35;95840;;;11.5;73.5
68891;BME280;55932;48.702;8.884;2023-04-29T00:40:06;95840;;;11.5;73.5
68891;BME280;55932;48.702;8.884;2023-04-29T00:42:36;95850;;;11.4;73.5
68891;BME280;55932;48.702;8.884;2023-04-29T00:45:14;95850;;;11.4;73.5
68891;BME280;55932;48.702;8.884;2023-04-29T00:47:45;95850;;;11.4;73.5
68891;BME280;55932;48.702;8.884;2023-04-29T00:50:16;95850;;;11.3;73.5
68891;BME280;55932;48.702;8.884;2023-04-29T00:52:40;95850;;;11.2;74
68891;BME280;55932;48.702;8.884;2023-04-29T01:00:12;95850;;;11;74
68891;BME280;55932;48.702;8.884;2023-04-29T01:02:43;95860;;;11;74
68891;BME280;55932;48.702;8.884;2023-04-29T01:07:51;95860;;;10.8;74
68891;BME280;55932;48.702;8.884;2023-04-29T01:13:04;95850;;;10.6;74.5
68891;BME280;55932;48.702;8.884;2023-04-29T01:15:32;95850;;;10.6;74.5
68891;BME280;55932;48.702;8.884;2023-04-29T01:18:04;95850;;;10.6;74
68891;BME280;55932;48.702;8.884;2023-04-29T01:22:53;95860;;;10.7;74
68891;BME280;55932;48.702;8.884;2023-04-29T01:25:24;95860;;;10.6;74
68891;BME280;55932;48.702;8.884;2023-04-29T01:27:59;95860;;;10.4;74
68891;BME280;55932;48.702;8.884;2023-04-29T01:30:24;95850;;;10.2;74.5
68891;BME280;55932;48.702;8.884;2023-04-29T01:32:51;95850;;;10.2;74.5
68891;BME280;55932;48.702;8.884;2023-04-29T01:35:29;95850;;;10.3;74
68891;BME280;55932;48.702;8.884;2023-04-29T01:37:55;95860;;;10.4;74
68891;BME280;55932;48.702;8.884;2023-04-29T01:53:16;95840;;;10.1;74
68891;BME280;55932;48.702;8.884;2023-04-29T01:55:39;95850;;;10.1;74
68891;BME280;55932;48.702;8.884;2023-04-29T02:00:34;95840;;;10.2;74
68891;BME280;55932;48.702;8.884;2023-04-29T02:03:05;95850;;;10.2;74
68891;BME280;55932;48.702;8.884;2023-04-29T02:05:36;95840;;;10.2;74
68891;BME280;55932;48.702;8.884;2023-04-29T02:08:06;95840;;;10.3;74
68891;BME280;55932;48.702;8.884;2023-04-29T02:10:38;95850;;;10.3;74
68891;BME280;55932;48.702;8.884;2023-04-29T02:13:08;95850;;;10.1;74
68891;BME280;55932;48.702;8.884;2023-04-29T02:15:46;95850;;;10;74.5
68891;BME280;55932;48.702;8.884;2023-04-29T02:18:04;95850;;;10;74
68891;BME280;55932;48.702;8.884;2023-04-29T02:20:35;95850;;;9.9;74
68891;BME280;55932;48.702;8.884;2023-04-29T02:23:06;95850;;;9.9;74
68891;BME280;55932;48.702;8.884;2023-04-29T02:25:37;95850;;;9.7;74
68891;BME280;55932;48.702;8.884;2023-04-29T02:28:07;95850;;;9.6;74.5
68891;BME280;55932;48.702;8.884;2023-04-29T02:30:38;95850;;;9.5;74.5
68891;BME280;55932;48.702;8.884;2023-04-29T02:33:08;95850;;;9.6;74
68891;BME280;55932;48.702;8.884;2023-04-29T02:35:40;95860;;;9.7;74
68891;BME280;55932;48.702;8.884;2023-04-29T02:38:10;95850;;;9.8;74
68891;BME280;55932;48.702;8.884;2023-04-29T02:45:43;95850;;;10.2;74
68891;BME280;55932;48.702;8.884;2023-04-29T02:48:14;95850;;;10;74
68891;BME280;55932;48.702;8.884;2023-04-29T02:50:44;95850;;;10;74
68891;BME280;55932;48.702;8.884;2023-04-29T02:53:15;95850;;;10;74
68891;BME280;55932;48.702;8.884;2023-04-29T02:55:52;95850;;;10;74
68891;BME280;55932;48.702;8.884;2023-04-29T02:58:23;95840;;;10;74
68891;BME280;55932;48.702;8.884;2023-04-29T03:00:55;95840;;;10;74
68891;BME280;55932;48.702;8.884;2023-04-29T03:05:49;95850;;;9.9;74
68891;BME280;55932;48.702;8.884;2023-04-29T03:08:20;95850;;;10;74
68891;BME280;55932;48.702;8.884;2023-04-29T03:15:52;95850;;;10.3;74
68891;BME280;55932;48.702;8.884;2023-04-29T03:18:23;95850;;;10.2;74
68891;BME280;55932;48.702;8.884;2023-04-29T03:20:54;95850;;;10.1;74
68891;BME280;55932;48.702;8.884;2023-04-29T03:23:25;95850;;;10.1;74
68891;BME280;55932;48.702;8.884;2023-04-29T03:28:32;95840;;;10.2;74
68891;BME280;55932;48.702;8.884;2023-04-29T03:31:03;95840;;;10.3;74
68891;BME280;55932;48.702;8.884;2023-04-29T03:33:35;95840;;;10.2;74
68891;BME280;55932;48.702;8.884;2023-04-29T03:36:05;95840;;;10.2;74
68891;BME280;55932;48.702;8.884;2023-04-29T03:38:36;95830;;;10.1;74
68891;BME280;55932;48.702;8.884;2023-04-29T03:41:14;95830;;;9.9;74.5
68891;BME280;55932;48.702;8.884;2023-04-29T03:43:45;95830;;;9.7;74.5
68891;BME280;55932;48.702;8.884;2023-04-29T03:56:30;95830;;;9.7;74.5
68891;BME280;55932;48.702;8.884;2023-04-29T04:01:17;95830;;;9.5;74.5
68891;BME280;55932;48.702;8.884;2023-04-29T04:03:48;95830;;;9.5;74.5
68891;BME280;55932;48.702;8.884;2023-04-29T04:06:24;95830;;;9.4;74.5
68891;BME280;55932;48.702;8.884;2023-04-29T04:09:01;95840;;;9.3;75
68891;BME280;55932;48.702;8.884;2023-04-29T04:11:18;95830;;;9.3;75
68891;BME280;55932;48.702;8.884;2023-04-29T04:13:49;95840;;;9.4;74.5
68891;BME280;55932;48.702;8.884;2023-04-29T04:18:42;95840;;;9.5;74.5
68891;BME280;55932;48.702;8.884;2023-04-29T04:21:16;95850;;;9.5;74.5
68891;BME280;55932;48.702;8.884;2023-04-29T04:23:44;95850;;;9.5;74.5
68891;BME280;55932;48.702;8.884;2023-04-29T04:28:52;95850;;;9.5;74.5
68891;BME280;55932;48.702;8.884;2023-04-29T04:31:29;95850;;;9.5;74.5
68891;BME280;55932;48.702;8.884;2023-04-29T04:34:08;95860;;;9.5;74.5
68891;BME280;55932;48.702;8.884;2023-04-29T04:36:37;95860;;;9.5;74.5
68891;BME280;55932;48.702;8.884;2023-04-29T04:41:17;95870;;;9.6;74.5
68891;BME280;55932;48.702;8.884;2023-04-29T04:43:48;95870;;;9.5;74.5
68891;BME280;55932;48.702;8.884;2023-04-29T04:48:43;95880;;;9.5;74.5
68891;BME280;55932;48.702;8.884;2023-04-29T04:58:46;95900;;;9.3;74.5
68891;BME280;55932;48.702;8.884;2023-04-29T05:01:17;95900;;;9.4;74.5
68891;BME280;55932;48.702;8.884;2023-04-29T05:03:48;95900;;;9.4;74.5
68891;BME280;55932;48.702;8.884;2023-04-29T05:06:19;95900;;;9.4;74.5
68891;BME280;55932;48.702;8.884;2023-04-29T05:08:49;95900;;;9.5;74
68891;BME280;55932;48.702;8.884;2023-04-29T05:11:27;95910;;;9.5;74
68891;BME280;55932;48.702;8.884;2023-04-29T05:13:58;95910;;;9.7;74
68891;BME280;55932;48.702;8.884;2023-04-29T05:16:29;95910;;;9.8;74
68891;BME280;55932;48.702;8.884;2023-04-29T05:19:00;95920;;;9.9;73.5
68891;BME280;55932;48.702;8.884;2023-04-29T05:21:31;95920;;;10;73.5
68891;BME280;55932;48.702;8.884;2023-04-29T05:24:08;95920;;;10.1;73.5
68891;BME280;55932;48.702;8.884;2023-04-29T05:26:39;95920;;;10.3;73.5
68891;BME280;55932;48.702;8.884;2023-04-29T05:34:12;95920;;;11.9;70.5
68891;BME280;55932;48.702;8.884;2023-04-29T05:36:43;95920;;;12.9;68.5
68891;BME280;55932;48.702;8.884;2023-04-29T05:41:36;95940;;;13.1;68.5
68891;BME280;55932;48.702;8.884;2023-04-29T05:44:08;95940;;;12.5;70.5
68891;BME280;55932;48.702;8.884;2023-04-29T05:46:38;95940;;;12.2;72
68891;BME280;55932;48.702;8.884;2023-04-29T05:56:35;95950;;;14;68.5
68891;BME280;55932;48.702;8.884;2023-04-29T05:59:06;95960;;;13.4;70.5
68891;BME280;55932;48.702;8.884;2023-04-29T06:01:37;95960;;;13.2;71.5
68891;BME280;55932;48.702;8.884;2023-04-29T06:04:08;95980;;;13;72
68891;BME280;55932;48.702;8.884;2023-04-29T06:06:39;95980;;;12.9;72.5
68891;BME280;55932;48.702;8.884;2023-04-29T06:09:16;95980;;;12.9;72.5
68891;BME280;55932;48.702;8.884;2023-04-29T06:11:48;95980;;;13;72
68891;BME280;55932;48.702;8.884;2023-04-29T06:14:18;95980;;;13.2;72
68891;BME280;55932;48.702;8.884;2023-04-29T06:21:44;96000;;;14;71
68891;BME280;55932;48.702;8.884;2023-04-29T06:24:15;96000;;;14.2;71
68891;BME280;55932;48.702;8.884;2023-04-29T06:26:45;96000;;;14.5;70
68891;BME280;55932;48.702;8.884;2023-04-29T06:29:16;96010;;;14.5;70.5
68891;BME280;55932;48.702;8.884;2023-04-29T06:31:47;96010;;;14.6;70
68891;BME280;55932;48.702;8.884;2023-04-29T06:34:18;96010;;;15.1;69
68891;BME280;55932;48.702;8.884;2023-04-29T06:36:49;96020;;;15.4;68.5
68891;BME280;55932;48.702;8.884;2023-04-29T06:39:19;96010;;;15.2;69
68891;BME280;55932;48.702;8.884;2023-04-29T06:41:50;96020;;;16;68
68891;BME280;55932;48.702;8.884;2023-04-29T06:44:27;96020;;;15.9;68.5
68891;BME280;55932;48.702;8.884;2023-04-29T06:46:58;96020;;;15.7;69.5
68891;BME280;55932;48.702;8.884;2023-04-29T06:49:36;96030;;;15.2;70
68891;BME280;55932;48.702;8.884;2023-04-29T06:54:35;96040;;;14.6;70.5
68891;BME280;55932;48.702;8.884;2023-04-29T06:57:03;96040;;;14.4;71
68891;BME280;55932;48.702;8.884;2023-04-29T06:59:33;96040;;;14.3;71
68891;BME280;55932;48.702;8.884;2023-04-29T07:02:04;96040;;;14.5;70.5
68891;BME280;55932;48.702;8.884;2023-04-29T07:04:36;96030;;;17.5;64.5
68891;BME280;55932;48.702;8.884;2023-04-29T07:07:06;96030;;;19.2;61.5
68891;BME280;55932;48.702;8.884;2023-04-29T07:09:37;96040;;;19.6;62
68891;BME280;55932;48.702;8.884;2023-04-29T07:12:07;96040;;;17.5;67
68891;BME280;55932;48.702;8.884;2023-04-29T07:14:38;96040;;;16.3;68.5
68891;BME280;55932;48.702;8.884;2023-04-29T07:17:16;96050;;;15.6;70
68891;BME280;55932;48.702;8.884;2023-04-29T07:24:52;96050;;;15.7;70
68891;BME280;55932;48.702;8.884;2023-04-29T07:29:49;96050;;;16.9;68
68891;BME280;55932;48.702;8.884;2023-04-29T07:32:26;96050;;;16.8;69
68891;BME280;55932;48.702;8.884;2023-04-29T07:34:50;96060;;;16.6;69.5
68891;BME280;55932;48.702;8.884;2023-04-29T07:37:30;96060;;;16.4;70
68891;BME280;55932;48.702;8.884;2023-04-29T07:39:50;96060;;;16.8;69
68891;BME280;55932;48.702;8.884;2023-04-29T07:42:20;96060;;;16.7;69
68891;BME280;55932;48.702;8.884;2023-04-29T07:49:46;96070;;;16.2;70.5
68891;BME280;55932;48.702;8.884;2023-04-29T07:52:17;96070;;;16.1;71
68891;BME280;55932;48.702;8.884;2023-04-29T07:54:48;96070;;;16.2;71
68891;BME280;55932;48.702;8.884;2023-04-29T07:59:42;96060;;;16.9;69.5
68891;BME280;55932;48.702;8.884;2023-04-29T08:02:13;96060;;;17.3;69
68891;BME280;55932;48.702;8.884;2023-04-29T08:04:44;96070;;;17.8;68.5
68891;BME280;55932;48.702;8.884;2023-04-29T08:07:15;96070;;;17.7;69
68891;BME280;55932;48.702;8.884;2023-04-29T08:14:47;96070;;;17.1;69.5
68891;BME280;55932;48.702;8.884;2023-04-29T08:19:55;96070;;;16.8;70
68891;BME280;55932;48.702;8.884;2023-04-29T08:22:26;96070;;;16.9;70
68891;BME280;55932;48.702;8.884;2023-04-29T08:24:57;96080;;;17.2;69
68891;BME280;55932;48.702;8.884;2023-04-29T08:29:51;96080;;;17.4;69
68891;BME280;55932;48.702;8.884;2023-04-29T08:32:22;96070;;;17;69.5
68891;BME280;55932;48.702;8.884;2023-04-29T08:34:53;96070;;;16.7;70
68891;BME280;55932;48.702;8.884;2023-04-29T08:42:31;96080;;;16.8;70
68891;BME280;55932;48.702;8.884;2023-04-29T08:44:57;96080;;;16.8;70
68891;BME280;55932;48.702;8.884;2023-04-29T08:47:29;96080;;;17.4;68.5
68891;BME280;55932;48.702;8.884;2023-04-29T08:50:05;96090;;;17;69.5
68891;BME280;55932;48.702;8.884;2023-04-29T08:52:29;96090;;;16.9;70
68891;BME280;55932;48.702;8.884;2023-04-29T08:55:06;96090;;;17;70.5
68891;BME280;55932;48.702;8.884;2023-04-29T08:57:37;96090;;;17.9;69
68891;BME280;55932;48.702;8.884;2023-04-29T09:00:15;96080;;;18.3;68.5
68891;BME280;55932;48.702;8.884;2023-04-29T09:02:40;96080;;;18.1;68
68891;BME280;55932;48.702;8.884;2023-04-29T09:05:10;96080;;;17.7;69
68891;BME280;55932;48.702;8.884;2023-04-29T09:07:47;96080;;;17.1;70
68891;BME280;55932;48.702;8.884;2023-04-29T09:10:24;96090;;;16.2;71
68891;BME280;55932;48.702;8.884;2023-04-29T09:12:55;96100;;;16;71
68891;BME280;55932;48.702;8.884;2023-04-29T09:15:11;96100;;;15.6;71.5
68891;BME280;55932;48.702;8.884;2023-04-29T09:17:44;96100;;;15.4;72
68891;BME280;55932;48.702;8.884;2023-04-29T09:25:11;96110;;;16;71.5
68891;BME280;55932;48.702;8.884;2023-04-29T09:27:38;96100;;;17.1;70
68891;BME280;55932;48.702;8.884;2023-04-29T09:37:41;96110;;;15.3;72
68891;BME280;55932;48.702;8.884;2023-04-29T09:40:43;96110;;;15;72.5
68891;BME280;55932;48.702;8.884;2023-04-29T09:42:43;96110;;;15.2;72.5
68891;BME280;55932;48.702;8.884;2023-04-29T09:45:31;96110;;;16.2;71.5
68891;BME280;55932;48.702;8.884;2023-04-29T09:48:00;96110;;;19.7;66.5
68891;BME280;55932;48.702;8.884;2023-04-29T09:52:51;96100;;;20.7;66.5
68891;BME280;55932;48.702;8.884;2023-04-29T09:55:22;96100;;;19.8;66.5
68891;BME280;55932;48.702;8.884;2023-04-29T09:57:53;96100;;;19.4;67
68891;BME280;55932;48.702;8.884;2023-04-29T10:00:24;96100;;;19.1;67.5
68891;BME280;55932;48.702;8.884;2023-04-29T10:05:32;96100;;;18.4;69
68891;BME280;55932;48.702;8.884;2023-04-29T10:10:47;96100;;;20.1;66.5
68891;BME280;55932;48.702;8.884;2023-04-29T10:13:04;96090;;;20.9;65.5
68891;BME280;55932;48.702;8.884;2023-04-29T10:17:59;96090;;;24.2;63
68891;BME280;55932;48.702;8.884;2023-04-29T10:20:29;96100;;;21.9;66
68891;BME280;55932;48.702;8.884;2023-04-29T10:23:00;96100;;;19.9;69
68891;BME280;55932;48.702;8.884;2023-04-29T10:25:30;96100;;;21.2;68.5
68891;BME280;55932;48.702;8.884;2023-04-29T10:28:01;96100;;;21.2;68.5
68891;BME280;55932;48.702;8.884;2023-04-29T10:30:38;96100;;;21.3;68
68891;BME280;55932;48.702;8.884;2023-04-29T10:33:09;96090;;;21.2;68
68891;BME280;55932;48.702;8.884;2023-04-29T10:35:45;96090;;;21.1;68.5
68891;BME280;55932;48.702;8.884;2023-04-29T10:40:39;96090;;;22.2;67
68891;BME280;55932;48.702;8.884;2023-04-29T10:43:03;96080;;;23;65.5
68891;BME280;55932;48.702;8.884;2023-04-29T10:48:07;96090;;;23.8;65
68891;BME280;55932;48.702;8.884;2023-04-29T10:50:31;96090;;;23.7;65.5
68891;BME280;55932;48.702;8.884;2023-04-29T10:53:01;96090;;;24.7;63.5
68891;BME280;55932;48.702;8.884;2023-04-29T10:55:32;96090;;;25.3;64
68891;BME280;55932;48.702;8.884;2023-04-29T10:58:02;96080;;;25.6;63.5
68891;BME280;55932;48.702;8.884;2023-04-29T11:00:33;96090;;;26.3;63.5
68891;BME280;55932;48.702;8.884;2023-04-29T11:08:13;96090;;;20.9;70
68891;BME280;55932;48.702;8.884;2023-04-29T11:10:36;96090;;;20.7;70
68891;BME280;55932;48.702;8.884;2023-04-29T11:13:38;96090;;;20.9;69.5
68891;BME280;55932;48.702;8.884;2023-04-29T11:15:37;96100;;;20.1;71
68891;BME280;55932;48.702;8.884;2023-04-29T11:18:10;96090;;;19.9;71
68891;BME280;55932;48.702;8.884;2023-04-29T11:21:10;96090;;;20;71.5
68891;BME280;55932;48.702;8.884;2023-04-29T11:28:11;96080;;;19.8;72
68891;BME280;55932;48.702;8.884;2023-04-29T11:30:42;96080;;;20.3;71.5
68891;BME280;55932;48.702;8.884;2023-04-29T11:33:13;96080;;;20.9;70.5
68891;BME280;55932;48.702;8.884;2023-04-29T11:38:28;96090;;;21.8;70
68891;BME280;55932;48.702;8.884;2023-04-29T11:40:53;96090;;;22;69.5
68891;BME280;55932;48.702;8.884;2023-04-29T11:45:46;96090;;;20.4;70.5
68891;BME280;55932;48.702;8.884;2023-04-29T11:53:19;96090;;;20.9;71
68891;BME280;55932;48.702;8.884;2023-04-29T11:55:53;96090;;;20.8;71.5
68891;BME280;55932;48.702;8.884;2023-04-29T11:58:21;96090;;;21.6;70.5
68891;BME280;55932;48.702;8.884;2023-04-29T12:00:51;96090;;;21.5;69
68891;BME280;55932;48.702;8.884;2023-04-29T12:03:22;96090;;;21.8;69.5
68891;BME280;55932;48.702;8.884;2023-04-29T12:05:53;96090;;;22.1;69
68891;BME280;55932;48.702;8.884;2023-04-29T12:08:24;96090;;;21.7;70.5
68891;BME280;55932;48.702;8.884;2023-04-29T12:11:01;96090;;;21.2;71
68891;BME280;55932;48.702;8.884;2023-04-29T12:13:32;96100;;;20.5;71.5
68891;BME280;55932;48.702;8.884;2023-04-29T12:16:03;96100;;;20.5;72.5
68891;BME280;55932;48.702;8.884;2023-04-29T12:18:34;96090;;;22;70.5
68891;BME280;55932;48.702;8.884;2023-04-29T12:21:11;96100;;;22.2;70.5
68891;BME280;55932;48.702;8.884;2023-04-29T12:23:36;96090;;;22.2;70
68891;BME280;55932;48.702;8.884;2023-04-29T12:26:13;96090;;;21.5;70
68891;BME280;55932;48.702;8.884;2023-04-29T12:28:52;96090;;;21.6;71.5
68891;BME280;55932;48.702;8.884;2023-04-29T12:33:44;96090;;;22;70.5
68891;BME280;55932;48.702;8.884;2023-04-29T12:36:15;96090;;;22.3;70
68891;BME280;55932;48.702;8.884;2023-04-29T12:38:46;96090;;;22.7;70.5
68891;BME280;55932;48.702;8.884;2023-04-29T12:41:14;96100;;;22.7;70.5
68891;BME280;55932;48.702;8.884;2023-04-29T12:43:51;96110;;;22;71
68891;BME280;55932;48.702;8.884;2023-04-29T12:46:28;96090;;;21.6;71
68891;BME280;55932;48.702;8.884;2023-04-29T12:48:39;96110;;;21.3;71.5
68891;BME280;55932;48.702;8.884;2023-04-29T12:51:09;96100;;;21.5;71.5
68891;BME280;55932;48.702;8.884;2023-04-29T12:53:43;96100;;;22;71.5
68891;BME280;55932;48.702;8.884;2023-04-29T12:58:35;96110;;;20.4;72
68891;BME280;55932;48.702;8.884;2023-04-29T13:01:05;96110;;;20.5;73
68891;BME280;55932;48.702;8.884;2023-04-29T13:03:37;96110;;;21.3;71.5
68891;BME280;55932;48.702;8.884;2023-04-29T13:11:09;96110;;;21.1;71.5
68891;BME280;55932;48.702;8.884;2023-04-29T13:13:39;96120;;;21.2;71.5
68891;BME280;55932;48.702;8.884;2023-04-29T13:16:11;96120;;;20.9;71.5
68891;BME280;55932;48.702;8.884;2023-04-29T13:21:18;96110;;;21.4;71
68891;BME280;55932;48.702;8.884;2023-04-29T13:23:49;96120;;;21.7;70.5
68891;BME280;55932;48.702;8.884;2023-04-29T13:26:20;96120;;;22.2;70
68891;BME280;55932;48.702;8.884;2023-04-29T13:28:57;96130;;;22.9;68.5
68891;BME280;55932;48.702;8.884;2023-04-29T13:31:35;96130;;;22.8;68.5
68891;BME280;55932;48.702;8.884;2023-04-29T13:34:11;96130;;;22.9;68
68891;BME280;55932;48.702;8.884;2023-04-29T13:38:53;96130;;;22.4;69
68891;BME280;55932;48.702;8.884;2023-04-29T13:41:24;96140;;;21.7;69.5
68891;BME280;55932;48.702;8.884;2023-04-29T13:43:55;96140;;;22.1;69.5
68891;BME280;55932;48.702;8.884;2023-04-29T13:46:26;96140;;;22.1;69.5
68891;BME280;55932;48.702;8.884;2023-04-29T13:48:57;96150;;;20.9;70
68891;BME280;55932;48.702;8.884;2023-04-29T13:51:27;96150;;;20.1;72
68891;BME280;55932;48.702;8.884;2023-04-29T13:54:05;96150;;;21;71
68891;BME280;55932;48.702;8.884;2023-04-29T13:56:37;96150;;;22;69.5
68891;BME280;55932;48.702;8.884;2023-04-29T13:59:01;96140;;;23;67.5
68891;BME280;55932;48.702;8.884;2023-04-29T14:01:32;96140;;;22.9;67.5
68891;BME280;55932;48.702;8.884;2023-04-29T14:04:03;96150;;;22.5;67
68891;BME280;55932;48.702;8.884;2023-04-29T14:08:57;96150;;;21.6;69.5
68891;BME280;55932;48.702;8.884;2023-04-29T14:11:28;96150;;;22;69.5
68891;BME280;55932;48.702;8.884;2023-04-29T14:13:58;96140;;;21.6;70
68891;BME280;55932;48.702;8.884;2023-04-29T14:16:29;96150;;;21.3;69.5
68891;BME280;55932;48.702;8.884;2023-04-29T14:24:02;96150;;;18.7;71
68891;BME280;55932;48.702;8.884;2023-04-29T14:26:33;96150;;;19.4;72
68891;BME280;55932;48.702;8.884;2023-04-29T14:29:03;96160;;;19.8;71
68891;BME280;55932;48.702;8.884;2023-04-29T14:31:34;96160;;;19.3;70.5
68891;BME280;55932;48.702;8.884;2023-04-29T14:34:05;96160;;;18.7;70.5
68891;BME280;55932;48.702;8.884;2023-04-29T14:36:35;96170;;;18.9;70.5
68891;BME280;55932;48.702;8.884;2023-04-29T14:39:06;96170;;;18.9;70
68891;BME280;55932;48.702;8.884;2023-04-29T14:49:09;96180;;;20.5;69
68891;BME280;55932;48.702;8.884;2023-04-29T14:51:42;96180;;;20.2;69
68891;BME280;55932;48.702;8.884;2023-04-29T14:54:18;96180;;;19.5;69.5
68891;BME280;55932;48.702;8.884;2023-04-29T14:56:49;96180;;;18.4;70
68891;BME280;55932;48.702;8.884;2023-04-29T14:59:27;96180;;;17.3;70.5
68891;BME280;55932;48.702;8.884;2023-04-29T15:01:51;96190;;;16.7;71.5
68891;BME280;55932;48.702;8.884;2023-04-29T15:04:22;96190;;;16.4;71.5
68891;BME280;55932;48.702;8.884;2023-04-29T15:06:52;96200;;;16;71.5
68891;BME280;55932;48.702;8.884;2023-04-29T15:09:16;96200;;;15.6;72
68891;BME280;55932;48.702;8.884;2023-04-29T15:14:18;96200;;;15.3;72
68891;BME280;55932;48.702;8.884;2023-04-29T15:21:54;96210;;;15.4;72
68891;BME280;55932;48.702;8.884;2023-04-29T15:24:21;96210;;;15.3;72
68891;BME280;55932;48.702;8.884;2023-04-29T15:26:52;96210;;;15.1;72
68891;BME280;55932;48.702;8.884;2023-04-29T15:29:44;96210;;;15.2;72.5
68891;BME280;55932;48.702;8.884;2023-04-29T15:34:30;96230;;;15.1;72.5
68891;BME280;55932;48.702;8.884;2023-04-29T15:37:01;96230;;;15.1;72.5
68891;BME280;55932;48.702;8.884;2023-04-29T15:39:32;96240;;;15.1;73
68891;BME280;55932;48.702;8.884;2023-04-29T15:42:03;96240;;;14.9;73
68891;BME280;55932;48.702;8.884;2023-04-29T15:44:33;96240;;;14.5;73
68891;BME280;55932;48.702;8.884;2023-04-29T15:47:04;96250;;;14.3;73
68891;BME280;55932;48.702;8.884;2023-04-29T15:49:49;96240;;;14;73.5
68891;BME280;55932;48.702;8.884;2023-04-29T15:57:28;96250;;;13.5;74
68891;BME280;55932;48.702;8.884;2023-04-29T15:59:45;96250;;;13.4;74
68891;BME280;55932;48.702;8.884;2023-04-29T16:04:39;96260;;;13.2;74
68891;BME280;55932;48.702;8.884;2023-04-29T16:07:10;96260;;;13;74.5
68891;BME280;55932;48.702;8.884;2023-04-29T16:09:41;96260;;;12.9;74
68891;BME280;55932;48.702;8.884;2023-04-29T16:19:38;96260;;;12.7;74
68891;BME280;55932;48.702;8.884;2023-04-29T16:22:09;96260;;;12.6;74
68891;BME280;55932;48.702;8.884;2023-04-29T16:24:39;96260;;;12.6;74
68891;BME280;55932;48.702;8.884;2023-04-29T16:27:13;96270;;;12.6;74
68891;BME280;55932;48.702;8.884;2023-04-29T16:32:12;96270;;;12.4;74.5
68891;BME280;55932;48.702;8.884;2023-04-29T16:34:45;96270;;;12.4;74
68891;BME280;55932;48.702;8.884;2023-04-29T16:37:13;96270;;;12.4;74
68891;BME280;55932;48.702;8.884;2023-04-29T16:39:44;96270;;;12.5;74
68891;BME280;55932;48.702;8.884;2023-04-29T16:47:16;96270;;;12.4;74
68891;BME280;55932;48.702;8.884;2023-04-29T16:49:47;96270;;;12.5;74
68891;BME280;55932;48.702;8.884;2023-04-29T16:54:55;96270;;;12.6;74
68891;BME280;55932;48.702;8.884;2023-04-29T16:57:26;96270;;;12.6;74
68891;BME280;55932;48.702;8.884;2023-04-29T16:59:59;96280;;;12.6;74
68891;BME280;55932;48.702;8.884;2023-04-29T17:04:58;96270;;;12.5;74
68891;BME280;55932;48.702;8.884;2023-04-29T17:07:26;96280;;;12.5;74
68891;BME280;55932;48.702;8.884;2023-04-29T17:17:29;96290;;;12.4;74
68891;BME280;55932;48.702;8.884;2023-04-29T17:19:59;96280;;;12.4;74
68891;BME280;55932;48.702;8.884;2023-04-29T17:22:29;96280;;;12.4;74
68891;BME280;55932;48.702;8.884;2023-04-29T17:25:00;96280;;;12.4;74
68891;BME280;55932;48.702;8.884;2023-04-29T17:27:31;96280;;;12.3;74
68891;BME280;55932;48.702;8.884;2023-04-29T17:32:31;96290;;;12.3;74
68891;BME280;55932;48.702;8.884;2023-04-29T17:35:25;96280;;;12.3;74
68891;BME280;55932;48.702;8.884;2023-04-29T17:37:55;96280;;;12.4;73.5
68891;BME280;55932;48.702;8.884;2023-04-29T17:42:54;96290;;;12.5;73.5
68891;BME280;55932;48.702;8.884;2023-04-29T17:45:15;96290;;;12.5;73.5
68891;BME280;55932;48.702;8.884;2023-04-29T17:47:45;96290;;;12.4;73.5
68891;BME280;55932;48.702;8.884;2023-04-29T17:55:27;96290;;;12.5;73.5
68891;BME280;55932;48.702;8.884;2023-04-29T18:00:28;96290;;;12.4;73.5
68891;BME280;55932;48.702;8.884;2023-04-29T18:03:00;96300;;;12.3;73.5
68891;BME280;55932;48.702;8.884;2023-04-29T18:05:33;96290;;;12.2;73.5
68891;BME280;55932;48.702;8.884;2023-04-29T18:07:58;96290;;;12.2;74
68891;BME280;55932;48.702;8.884;2023-04-29T18:10:30;96290;;;12.2;73.5
68891;BME280;55932;48.702;8.884;2023-04-29T18:12:49;96290;;;12.1;74
68891;BME280;55932;48.702;8.884;2023-04-29T18:15:19;96290;;;12.2;74
68891;BME280;55932;48.702;8.884;2023-04-29T18:17:49;96290;;;12.1;74
68891;BME280;55932;48.702;8.884;2023-04-29T18:20:19;96290;;;12;74
68891;BME280;55932;48.702;8.884;2023-04-29T18:22:49;96290;;;11.9;74
68891;BME280;55932;48.702;8.884;2023-04-29T18:25:21;96290;;;11.9;74
68891;BME280;55932;48.702;8.884;2023-04-29T18:27:50;96290;;;11.8;74
68891;BME280;55932;48.702;8.884;2023-04-29T18:30:20;96290;;;11.8;74
68891;BME280;55932;48.702;8.884;2023-04-29T18:35:10;96290;;;11.8;74
68891;BME280;55932;48.702;8.884;2023-04-29T18:37:40;96290;;;11.8;74
68891;BME280;55932;48.702;8.884;2023-04-29T18:40:11;96290;;;11.8;74
68891;BME280;55932;48.702;8.884;2023-04-29T18:42:41;96290;;;11.7;74
68891;BME280;55932;48.702;8.884;2023-04-29T18:45:12;96300;;;11.7;74
68891;BME280;55932;48.702;8.884;2023-04-29T18:47:42;96300;;;11.8;74
68891;BME280;55932;48.702;8.884;2023-04-29T18:50:35;96300;;;11.8;73.5
68891;BME280;55932;48.702;8.884;2023-04-29T18:53:06;96300;;;11.7;74
68891;BME280;55932;48.702;8.884;2023-04-29T18:57:56;96300;;;11.7;73.5
68891;BME280;55932;48.702;8.884;2023-04-29T19:00:35;96310;;;11.7;73.5
68891;BME280;55932;48.702;8.884;2023-04-29T19:03:05;96310;;;11.6;74
68891;BME280;55932;48.702;8.884;2023-04-29T19:05:26;96320;;;11.5;74
68891;BME280;55932;48.702;8.884;2023-04-29T19:07:56;96320;;;11.5;74
68891;BME280;55932;48.702;8.884;2023-04-29T19:10:26;96330;;;11.4;74